Time;durP1;ratioP1;P1;durP2;ratioP2;P2;SDS_P1;SDS_P2;PMS_P1;PMS_P2;Temp;Humidity;BMP_temperature;BMP_pressure;BME280_temperature;BME280_humidity;BME280_pressure;Samples;Min_cycle;Max_cycle;Signal;HPM_P1;HPM_P2
2022/09/25 00:01:08;;;;;;;3.78;2.03;;;9.80;99.90;;;;;;4995082;28;20100;-78
2022/09/25 00:03:33;;;;;;;2.25;2.03;;;9.80;99.90;;;;;;4993057;28;20035;-78
2022/09/25 00:06:05;;;;;;;4.15;1.92;;;9.90;99.90;;;;;;5005526;28;20026;-78
2022/09/25 00:08:32;;;;;;;2.47;1.85;;;10.00;99.90;;;;;;5005450;28;20028;-78
2022/09/25 00:11:04;;;;;;;3.63;2.33;;;10.00;99.90;;;;;;5003844;28;20030;-78
2022/09/25 00:13:30;;;;;;;6.13;2.55;;;10.00;99.90;;;;;;5005164;28;20568;-78
2022/09/25 00:15:56;;;;;;;2.42;1.48;;;10.00;99.90;;;;;;5005288;28;20030;-78
2022/09/25 00:21:11;;;;;;;3.50;2.65;;;10.00;99.90;;;;;;5005638;28;20390;-78
2022/09/25 00:23:38;;;;;;;2.47;1.50;;;10.00;99.90;;;;;;5004851;28;20427;-78
2022/09/25 00:26:07;;;;;;;1.40;1.27;;;9.90;99.90;;;;;;5004775;28;20268;-77
2022/09/25 00:28:35;;;;;;;;;;;9.90;99.90;;;;;;5005228;28;20022;-77
2022/09/25 00:31:03;;;;;;;2.03;1.35;;;9.80;99.90;;;;;;5004679;28;19912;-78
2022/09/25 00:33:29;;;;;;;0.95;0.95;;;9.90;99.90;;;;;;5004876;28;20528;-78
2022/09/25 00:35:54;;;;;;;2.25;1.38;;;9.80;99.90;;;;;;5006360;28;20034;-76
2022/09/25 00:38:20;;;;;;;1.70;1.58;;;9.80;99.90;;;;;;5017181;28;20221;-79
2022/09/25 00:40:49;;;;;;;11.73;6.47;;;10.30;99.90;;;;;;5001318;28;20228;-79
2022/09/25 00:43:51;;;;;;;3.00;1.58;;;9.70;99.90;;;;;;5012918;28;20117;-80
2022/09/25 00:46:43;;;;;;;1.60;1.27;;;9.60;99.90;;;;;;5011599;28;20021;-80
2022/09/25 00:49:26;;;;;;;3.90;2.30;;;9.60;99.90;;;;;;5013896;28;20105;-78
2022/09/25 00:51:58;;;;;;;2.58;2.20;;;9.60;99.90;;;;;;5012498;28;20075;-79
2022/09/25 00:54:29;;;;;;;4.57;3.45;;;11.80;99.90;;;;;;5012116;28;20029;-79
2022/09/25 00:56:57;;;;;;;30.70;3.88;;;9.50;99.90;;;;;;5013118;28;20119;-79
2022/09/25 00:59:28;;;;;;;3.72;2.08;;;9.40;99.90;;;;;;5011632;28;20614;-79
2022/09/25 01:02:00;;;;;;;3.72;2.72;;;9.30;99.90;;;;;;5026507;28;20127;-78
2022/09/25 01:04:31;;;;;;;1.00;0.90;;;9.30;99.90;;;;;;5010503;28;20046;-79
2022/09/25 01:07:01;;;;;;;2.08;1.23;;;9.30;99.90;;;;;;5017597;28;20087;-78
2022/09/25 01:09:45;;;;;;;1.75;1.63;;;9.30;99.90;;;;;;5012248;28;20045;-76
2022/09/25 01:12:11;;;;;;;1.50;1.15;;;9.30;99.90;;;;;;5011805;28;20486;-79
2022/09/25 01:14:38;;;;;;;0.82;0.82;;;9.40;99.90;;;;;;5012011;28;20101;-76
2022/09/25 01:17:25;;;;;;;1.27;1.00;;;9.30;99.90;;;;;;5012899;28;20029;-76
2022/09/25 01:20:00;;;;;;;3.67;1.35;;;9.30;99.90;;;;;;5013374;28;20026;-77
2022/09/25 01:22:45;;;;;;;1.63;1.30;;;9.30;99.90;;;;;;5012644;28;20018;-76
2022/09/25 01:25:17;;;;;;;2.92;1.40;;;9.20;99.90;;;;;;5012786;28;20049;-76
2022/09/25 01:28:01;;;;;;;1.02;1.02;;;9.20;99.90;;;;;;5011570;28;20022;-76
2022/09/25 01:30:32;;;;;;;1.45;1.35;;;9.20;99.90;;;;;;5012952;28;20026;-77
2022/09/25 01:33:01;;;;;;;1.73;0.70;;;9.20;99.90;;;;;;5012658;28;20445;-77
2022/09/25 01:35:57;;;;;;;0.73;0.70;;;9.20;99.90;;;;;;5012610;28;20026;-77
2022/09/25 01:38:43;;;;;;;1.42;1.23;;;9.20;99.90;;;;;;5012536;28;20026;-77
2022/09/25 01:41:17;;;;;;;1.95;1.05;;;9.20;99.90;;;;;;5012419;28;20101;-76
2022/09/25 01:43:53;;;;;;;9.68;4.57;;;9.00;99.90;;;;;;5011796;28;20041;-78
2022/09/25 01:46:23;;;;;;;0.90;0.90;;;9.20;99.90;;;;;;5012507;28;20053;-77
2022/09/25 01:49:16;;;;;;;4.88;2.28;;;9.10;99.90;;;;;;5012270;28;20033;-78
2022/09/25 01:51:50;;;;;;;5.78;2.00;;;9.10;99.90;;;;;;5011078;28;20152;-77
2022/09/25 01:54:38;;;;;;;0.75;0.60;;;9.10;99.90;;;;;;5011612;28;20529;-79
2022/09/25 01:57:14;;;;;;;1.30;1.00;;;9.00;99.90;;;;;;5011905;28;20057;-78
2022/09/25 02:00:01;;;;;;;1.45;1.00;;;9.00;99.90;;;;;;5012013;28;20265;-77
2022/09/25 02:02:34;;;;;;;3.58;1.48;;;9.00;99.90;;;;;;5012097;28;20049;-77
2022/09/25 02:05:10;;;;;;;3.40;1.25;;;9.10;99.90;;;;;;5012121;28;20033;-76
2022/09/25 02:07:44;;;;;;;8.52;2.40;;;9.10;99.90;;;;;;5011981;28;20018;-77
2022/09/25 02:10:35;;;;;;;2.40;1.60;;;9.10;99.90;;;;;;5011820;28;20478;-77
2022/09/25 02:13:14;;;;;;;2.55;2.35;;;9.10;99.90;;;;;;5011675;28;20017;-77
2022/09/25 02:15:47;;;;;;;7.40;1.80;;;9.10;99.90;;;;;;5011731;28;20225;-77
2022/09/25 02:21:39;;;;;;;3.15;1.85;;;9.30;99.90;;;;;;5011828;28;20501;-76
2022/09/25 02:24:24;;;;;;;1.02;1.02;;;9.30;99.90;;;;;;5011588;28;20053;-77
2022/09/25 02:26:53;;;;;;;1.58;1.02;;;9.30;99.90;;;;;;5010328;28;20026;-77
2022/09/25 02:29:22;;;;;;;;;;;9.40;99.90;;;;;;5011733;28;20026;-77
2022/09/25 02:31:58;;;;;;;1.02;1.02;;;9.40;99.90;;;;;;5011269;28;20313;-78
2022/09/25 02:34:27;;;;;;;1.85;1.00;;;9.50;99.90;;;;;;5011361;28;20030;-77
2022/09/25 02:36:53;;;;;;;1.08;1.08;;;9.50;99.90;;;;;;5011332;28;20022;-77
2022/09/25 02:39:23;;;;;;;1.85;1.40;;;9.40;99.90;;;;;;5011218;28;20145;-76
2022/09/25 02:42:12;;;;;;;1.50;1.40;;;9.40;99.90;;;;;;5011336;28;20025;-77
2022/09/25 02:45:07;;;;;;;2.08;1.63;;;9.40;99.90;;;;;;5026268;28;20045;-77
2022/09/25 02:48:10;;;;;;;2.33;1.52;;;9.40;99.90;;;;;;5011196;28;20056;-77
2022/09/25 02:50:42;;;;;;;1.95;1.27;;;9.40;99.90;;;;;;5011255;28;20064;-76
2022/09/25 02:53:47;;;;;;;3.97;2.20;;;9.60;99.90;;;;;;5011157;28;20029;-77
2022/09/25 02:56:28;;;;;;;3.03;1.85;;;9.60;99.90;;;;;;4993026;28;20042;-77
2022/09/25 02:59:08;;;;;;;2.47;2.28;;;9.60;99.90;;;;;;5012342;28;20040;-77
2022/09/25 03:02:20;;;;;;;3.15;2.15;;;9.70;99.90;;;;;;5012668;28;20093;-77
2022/09/25 03:04:31;;;;;;;4.13;2.28;;;9.80;99.90;;;;;;5011898;28;20426;-77
2022/09/25 03:06:57;;;;;;;4.20;2.80;;;9.80;99.90;;;;;;5011544;28;20022;-78
2022/09/25 03:09:25;;;;;;;2.45;1.75;;;9.90;99.90;;;;;;5010870;28;20080;-76
2022/09/25 03:11:51;;;;;;;3.08;1.80;;;9.80;99.90;;;;;;5011172;28;20026;-76
2022/09/25 03:14:17;;;;;;;3.60;2.22;;;9.80;99.90;;;;;;5010472;28;20026;-76
2022/09/25 03:16:55;;;;;;;7.28;1.27;;;11.60;99.90;;;;;;5025634;28;20026;-76
2022/09/25 03:19:21;;;;;;;4.47;1.90;;;9.90;99.90;;;;;;5010964;28;20022;-76
2022/09/25 03:21:47;;;;;;;2.95;1.88;;;9.80;99.90;;;;;;5010744;28;20104;-76
2022/09/25 03:24:14;;;;;;;6.15;2.47;;;9.90;99.90;;;;;;5010671;28;20038;-76
2022/09/25 03:26:40;;;;;;;1.77;1.67;;;9.90;99.90;;;;;;5010549;28;20466;-76
2022/09/25 03:29:09;;;;;;;1.85;1.75;;;9.90;99.90;;;;;;5025506;28;20029;-75
2022/09/25 03:31:41;;;;;;;1.55;1.45;;;9.90;99.90;;;;;;5010240;28;20142;-76
2022/09/25 03:34:12;;;;;;;2.72;1.95;;;9.60;99.90;;;;;;5010278;28;20044;-76
2022/09/25 03:36:46;;;;;;;2.95;2.08;;;10.00;99.90;;;;;;5010636;28;20018;-76
2022/09/25 03:39:16;;;;;;;5.03;2.67;;;9.90;99.90;;;;;;5010350;28;20450;-76
2022/09/25 03:41:42;;;;;;;;;;;9.90;99.90;;;;;;5010759;28;20026;-76
2022/09/25 03:44:08;;;;;;;15.57;1.90;;;9.80;99.90;;;;;;5009953;28;19964;-76
2022/09/25 03:46:35;;;;;;;1.55;0.93;;;9.80;99.90;;;;;;5010352;28;20029;-77
2022/09/25 03:49:04;;;;;;;2.33;1.92;;;9.80;99.90;;;;;;5010458;28;20033;-78
2022/09/25 03:51:31;;;;;;;2.30;1.00;;;10.00;99.90;;;;;;5010040;28;20079;-76
2022/09/25 03:54:06;;;;;;;4.28;2.28;;;9.90;99.90;;;;;;5010182;28;20042;-78
2022/09/25 03:56:31;;;;;;;4.90;1.60;;;9.80;99.90;;;;;;5025301;28;20422;-77
2022/09/25 03:58:57;;;;;;;3.03;1.75;;;9.80;99.90;;;;;;5009910;28;20030;-77
2022/09/25 04:01:25;;;;;;;2.47;1.60;;;9.70;99.90;;;;;;5010205;28;20017;-78
2022/09/25 04:03:51;;;;;;;1.95;1.48;;;9.70;99.90;;;;;;5010349;28;20117;-77
2022/09/25 04:06:30;;;;;;;1.60;1.50;;;9.80;99.90;;;;;;5010266;28;20014;-77
2022/09/25 04:08:56;;;;;;;1.75;1.20;;;9.80;99.90;;;;;;5009985;28;20045;-77
2022/09/25 04:11:28;;;;;;;1.23;1.23;;;9.80;99.90;;;;;;5010011;28;20045;-77
2022/09/25 04:13:55;;;;;;;2.10;1.23;;;9.90;99.90;;;;;;5015096;28;20066;-76
2022/09/25 04:16:21;;;;;;;1.70;1.30;;;9.80;99.90;;;;;;5010362;28;20044;-77
2022/09/25 04:18:47;;;;;;;1.92;1.60;;;9.80;99.90;;;;;;5012822;28;20104;-76
2022/09/25 04:21:13;;;;;;;2.75;1.30;;;9.90;99.90;;;;;;5015706;28;20038;-77
2022/09/25 04:23:39;;;;;;;2.22;1.75;;;9.80;99.90;;;;;;5013810;28;20084;-76
2022/09/25 04:26:07;;;;;;;2.55;1.60;;;9.80;99.90;;;;;;5013781;28;20030;-76
2022/09/25 04:28:33;;;;;;;1.67;1.20;;;9.80;99.90;;;;;;5014605;28;20105;-76
2022/09/25 04:30:59;;;;;;;2.35;1.15;;;9.80;99.90;;;;;;5011680;28;20022;-76
2022/09/25 04:36:09;;;;;;;2.13;1.48;;;9.80;99.90;;;;;;5013204;28;20991;-76
2022/09/25 04:38:35;;;;;;;1.88;1.38;;;9.80;99.90;;;;;;5028293;28;20026;-76
2022/09/25 04:41:01;;;;;;;1.77;0.77;;;9.70;99.90;;;;;;5011640;28;20067;-77
2022/09/25 04:43:31;;;;;;;2.22;1.30;;;9.70;99.90;;;;;;5011607;28;20045;-77
2022/09/25 04:46:05;;;;;;;0.75;0.70;;;9.60;99.90;;;;;;5012442;28;20494;-77
2022/09/25 04:48:32;;;;;;;1.70;1.60;;;9.70;99.90;;;;;;5014358;28;20022;-78
2022/09/25 04:50:58;;;;;;;2.03;1.73;;;9.80;99.90;;;;;;5017917;28;20021;-78
2022/09/25 04:53:26;;;;;;;1.23;1.23;;;9.80;99.90;;;;;;5017221;28;20022;-78
2022/09/25 04:55:54;;;;;;;1.63;1.17;;;9.70;99.90;;;;;;5011507;28;20022;-77
2022/09/25 04:58:20;;;;;;;1.30;1.25;;;9.70;99.90;;;;;;5010237;28;20125;-78
2022/09/25 05:00:46;;;;;;;1.27;1.10;;;9.80;99.90;;;;;;5010104;28;20026;-78
2022/09/25 05:03:12;;;;;;;1.05;1.02;;;9.70;99.90;;;;;;5010639;28;20576;-79
2022/09/25 05:05:37;;;;;;;2.15;1.25;;;9.70;99.90;;;;;;5009856;28;20018;-78
2022/09/25 05:08:03;;;;;;;1.95;1.27;;;9.70;99.90;;;;;;5010204;28;20033;-78
2022/09/25 05:10:32;;;;;;;1.73;1.63;;;9.70;99.90;;;;;;5010267;28;20057;-78
2022/09/25 05:13:02;;;;;;;1.37;0.80;;;9.80;99.90;;;;;;5010939;28;20482;-78
2022/09/25 05:15:30;;;;;;;1.70;1.13;;;9.80;99.90;;;;;;5010766;28;20474;-78
2022/09/25 05:18:00;;;;;;;2.65;1.80;;;9.90;99.90;;;;;;5010842;28;20052;-78
2022/09/25 05:20:26;;;;;;;1.20;1.10;;;9.90;99.90;;;;;;5010938;28;20265;-78
2022/09/25 05:22:58;;;;;;;3.45;1.67;;;9.90;99.90;;;;;;5010896;28;20666;-78
2022/09/25 05:25:25;;;;;;;1.42;1.10;;;10.00;99.90;;;;;;5012154;28;20030;-77
2022/09/25 05:27:54;;;;;;;1.40;1.02;;;10.00;99.90;;;;;;5011853;28;20034;-79
2022/09/25 05:30:20;;;;;;;0.85;0.75;;;10.00;99.90;;;;;;5010934;28;20030;-78
2022/09/25 05:32:48;;;;;;;1.70;1.20;;;10.00;99.90;;;;;;5012748;28;20089;-78
2022/09/25 05:35:18;;;;;;;1.73;1.27;;;10.10;99.90;;;;;;5012573;28;20018;-78
2022/09/25 05:37:44;;;;;;;1.33;1.15;;;10.10;99.90;;;;;;5027470;28;20363;-78
2022/09/25 05:40:14;;;;;;;2.47;1.55;;;10.10;99.90;;;;;;5011959;28;20654;-78
2022/09/25 05:42:40;;;;;;;2.38;1.55;;;10.20;99.90;;;;;;5012211;28;20324;-78
2022/09/25 05:45:06;;;;;;;3.13;1.58;;;10.10;99.90;;;;;;5012094;28;20641;-78
2022/09/25 05:47:32;;;;;;;1.23;1.13;;;10.10;99.90;;;;;;5012377;28;20029;-78
2022/09/25 05:49:57;;;;;;;4.75;1.50;;;10.10;99.90;;;;;;5012215;28;20025;-78
2022/09/25 05:52:23;;;;;;;2.97;1.65;;;10.10;99.90;;;;;;5027470;28;20387;-78
2022/09/25 05:54:49;;;;;;;2.55;1.77;;;10.10;99.90;;;;;;5012079;28;20467;-78
2022/09/25 05:57:15;;;;;;;6.65;2.22;;;10.10;99.90;;;;;;5012313;28;20034;-78
2022/09/25 05:59:40;;;;;;;2.38;1.23;;;10.20;99.90;;;;;;5012010;28;20125;-78
2022/09/25 06:02:10;;;;;;;3.10;1.65;;;10.30;99.90;;;;;;5012010;28;20037;-77
2022/09/25 06:04:36;;;;;;;3.10;1.40;;;10.30;99.90;;;;;;5012374;28;20528;-77
2022/09/25 06:07:02;;;;;;;3.75;2.30;;;10.40;99.90;;;;;;5011848;28;20069;-77
2022/09/25 06:09:27;;;;;;;2.53;2.33;;;10.50;99.90;;;;;;5011887;28;20053;-78
2022/09/25 06:11:53;;;;;;;3.78;2.97;;;10.60;99.90;;;;;;5011750;28;20482;-78
2022/09/25 06:14:19;;;;;;;2.95;1.80;;;;;;;;;;5011618;28;20148;-77
2022/09/25 06:16:49;;;;;;;4.63;2.15;;;10.50;99.90;;;;;;5011796;28;20033;-77
2022/09/25 06:19:16;;;;;;;;;;;10.60;99.90;;;;;;5011962;28;20022;-78
2022/09/25 06:21:44;;;;;;;3.08;1.38;;;10.60;99.90;;;;;;5011589;28;20004;-78
2022/09/25 06:24:10;;;;;;;4.93;2.13;;;10.70;99.90;;;;;;5011474;28;20037;-78
2022/09/25 06:26:37;;;;;;;2.17;2.05;;;;;;;;;;5011550;28;20101;-78
2022/09/25 06:29:02;;;;;;;9.43;1.75;;;10.70;99.90;;;;;;5011262;28;20025;-78
2022/09/25 06:31:28;;;;;;;5.00;3.17;;;10.70;99.90;;;;;;5008930;28;20045;-78
2022/09/25 06:33:54;;;;;;;3.33;1.80;;;10.90;99.90;;;;;;5010427;28;20437;-78
2022/09/25 06:36:21;;;;;;;6.28;3.30;;;11.00;99.90;;;;;;5010578;28;20530;-78
2022/09/25 06:38:48;;;;;;;1.58;1.38;;;11.00;99.90;;;;;;5010546;28;20038;-78
2022/09/25 06:41:14;;;;;;;3.63;2.22;;;11.00;99.90;;;;;;5009880;28;20025;-78
2022/09/25 06:43:40;;;;;;;2.45;2.20;;;10.90;99.90;;;;;;5009936;28;20042;-78
2022/09/25 06:46:06;;;;;;;2.50;2.30;;;11.10;99.90;;;;;;5010456;28;20026;-78
2022/09/25 06:48:31;;;;;;;2.33;1.95;;;11.20;99.90;;;;;;5010173;28;20026;-78
2022/09/25 06:51:00;;;;;;;5.68;4.00;;;11.10;99.90;;;;;;5008831;28;20374;-78
2022/09/25 06:53:26;;;;;;;2.45;1.95;;;11.20;99.90;;;;;;5010170;28;20049;-78
2022/09/25 06:55:55;;;;;;;4.05;2.60;;;11.30;99.90;;;;;;5010232;28;20026;-77
2022/09/25 06:58:22;;;;;;;4.57;2.58;;;11.30;99.90;;;;;;5009990;28;20029;-78
2022/09/25 07:00:50;;;;;;;5.15;2.40;;;11.30;99.90;;;;;;5010262;28;20110;-78
2022/09/25 07:06:02;;;;;;;2.13;2.03;;;11.30;99.90;;;;;;5010108;28;20024;-78
2022/09/25 07:08:28;;;;;;;2.33;2.13;;;11.30;99.90;;;;;;5008669;28;20034;-78
2022/09/25 07:10:55;;;;;;;9.35;2.28;;;11.50;99.90;;;;;;5009834;28;20032;-78
2022/09/25 07:13:27;;;;;;;2.70;1.95;;;11.50;99.90;;;;;;5009692;28;20034;-78
2022/09/25 07:16:01;;;;;;;6.90;2.65;;;11.50;99.90;;;;;;5009880;28;20117;-78
2022/09/25 07:18:28;;;;;;;4.22;2.72;;;11.60;99.90;;;;;;5009165;28;20034;-78
2022/09/25 07:20:59;;;;;;;3.58;2.20;;;11.80;99.90;;;;;;5008569;28;20026;-78
2022/09/25 07:23:25;;;;;;;4.65;3.13;;;11.80;99.90;;;;;;5009921;28;20036;-78
2022/09/25 07:25:51;;;;;;;2.92;1.70;;;11.80;99.90;;;;;;5009561;28;20029;-78
2022/09/25 07:28:18;;;;;;;3.92;2.78;;;11.70;99.90;;;;;;5024588;28;20022;-77
2022/09/25 07:30:44;;;;;;;2.35;2.25;;;14.80;99.90;;;;;;5008169;28;20026;-78
2022/09/25 07:33:11;;;;;;;4.88;1.90;;;14.10;99.90;;;;;;4965893;28;1290504;-78
2022/09/25 07:35:37;;;;;;;2.72;1.67;;;11.50;99.90;;;;;;5010190;28;20025;-78
2022/09/25 07:38:03;;;;;;;6.05;2.70;;;11.80;99.90;;;;;;5010734;28;20053;-79
2022/09/25 07:40:30;;;;;;;3.22;1.35;;;11.60;99.90;;;;;;5010314;28;20390;-78
2022/09/25 07:43:00;;;;;;;2.35;2.13;;;11.70;99.90;;;;;;5008680;28;20042;-79
2022/09/25 07:45:26;;;;;;;3.47;2.47;;;11.80;99.90;;;;;;5010043;28;20029;-78
2022/09/25 07:47:59;;;;;;;4.78;2.72;;;11.70;99.90;;;;;;5010015;28;20112;-78
2022/09/25 07:50:27;;;;;;;5.93;3.13;;;11.60;99.90;;;;;;5010119;28;20538;-78
2022/09/25 07:52:53;;;;;;;4.18;2.83;;;11.70;99.90;;;;;;5007928;28;20114;-78
2022/09/25 07:55:19;;;;;;;5.35;2.42;;;;;;;;;;5010216;28;20026;-78
2022/09/25 07:57:45;;;;;;;3.03;2.35;;;11.70;99.90;;;;;;5009837;28;20022;-77
2022/09/25 08:00:12;;;;;;;6.22;2.83;;;11.80;99.90;;;;;;5025342;28;20517;-77
2022/09/25 08:02:38;;;;;;;4.55;2.53;;;11.90;99.90;;;;;;5009947;28;20026;-78
2022/09/25 08:05:04;;;;;;;6.05;2.75;;;11.80;99.90;;;;;;5010082;28;20025;-78
2022/09/25 08:07:29;;;;;;;4.97;2.30;;;11.80;99.90;;;;;;5010533;28;20493;-78
2022/09/25 08:09:58;;;;;;;5.13;2.88;;;11.80;99.90;;;;;;5010217;28;20030;-78
2022/09/25 08:12:24;;;;;;;3.85;3.10;;;11.90;99.90;;;;;;5010185;28;20235;-78
2022/09/25 08:14:51;;;;;;;5.57;3.45;;;12.90;99.90;;;;;;5025334;28;20087;-78
2022/09/25 08:17:21;;;;;;;6.45;4.15;;;11.90;99.90;;;;;;5010144;28;20032;-78
2022/09/25 08:19:47;;;;;;;5.53;3.35;;;11.90;99.90;;;;;;5009890;28;20025;-78
2022/09/25 08:22:12;;;;;;;3.03;2.53;;;12.00;99.90;;;;;;5010035;28;20022;-78
2022/09/25 08:24:38;;;;;;;4.13;2.30;;;12.00;99.90;;;;;;5025165;28;20041;-78
2022/09/25 08:27:04;;;;;;;4.03;3.05;;;12.10;99.90;;;;;;5009976;28;20026;-78
2022/09/25 08:29:30;;;;;;;6.15;3.45;;;12.30;99.90;;;;;;5010153;28;20014;-78
2022/09/25 08:31:56;;;;;;;9.43;3.40;;;12.40;99.90;;;;;;5009789;28;20046;-78
2022/09/25 08:34:22;;;;;;;3.72;3.03;;;12.60;99.90;;;;;;5010079;28;20033;-78
2022/09/25 08:36:49;;;;;;;4.43;3.53;;;;;;;;;;5024821;28;20064;-77
2022/09/25 08:39:16;;;;;;;5.35;3.10;;;13.00;99.90;;;;;;5009673;28;20034;-78
2022/09/25 08:41:49;;;;;;;6.20;3.42;;;13.20;99.90;;;;;;5009598;28;20033;-78
2022/09/25 08:44:38;;;;;;;2.80;1.75;;;13.30;99.90;;;;;;5024651;28;20037;-78
2022/09/25 08:50:17;;;;;;;4.50;2.63;;;13.90;99.90;;;;;;5009695;28;19921;-78
2022/09/25 08:52:46;;;;;;;4.03;2.65;;;14.20;99.90;;;;;;5009723;28;20030;-78
2022/09/25 08:58:23;;;;;;;1.60;1.45;;;14.40;99.90;;;;;;5008277;28;20068;-79
2022/09/25 09:00:53;;;;;;;4.40;2.08;;;14.70;99.90;;;;;;5009273;28;20097;-79
2022/09/25 09:03:21;;;;;;;4.70;1.98;;;14.70;99.90;;;;;;5009185;28;20026;-78
2022/09/25 09:05:59;;;;;;;2.28;2.00;;;14.50;99.90;;;;;;5012488;28;20057;-78
2022/09/25 09:08:28;;;;;;;8.07;5.23;;;14.30;99.90;;;;;;5012674;28;20026;-79
2022/09/25 09:11:01;;;;;;;7.23;4.70;;;14.40;99.90;;;;;;5013033;28;20058;-78
2022/09/25 09:13:42;;;;;;;5.15;2.08;;;14.70;99.90;;;;;;5012539;28;20273;-78
2022/09/25 09:16:30;;;;;;;3.75;2.35;;;14.70;99.90;;;;;;5012574;28;20033;-79
2022/09/25 09:18:56;;;;;;;9.93;2.08;;;15.00;99.90;;;;;;5010787;28;20497;-77
2022/09/25 09:21:59;;;;;;;3.17;2.47;;;15.00;99.90;;;;;;5011410;28;20064;-78
2022/09/25 09:24:34;;;;;;;1.95;1.35;;;14.60;99.90;;;;;;5012853;28;20112;-78
2022/09/25 09:27:24;;;;;;;3.90;3.00;;;14.30;99.90;;;;;;5012822;28;20018;-78
2022/09/25 09:30:11;;;;;;;3.05;2.47;;;14.20;99.90;;;;;;5011109;28;20030;-78
2022/09/25 09:32:43;;;;;;;3.22;1.83;;;14.20;99.90;;;;;;5012345;28;20037;-78
2022/09/25 09:35:33;;;;;;;4.97;1.83;;;14.40;99.90;;;;;;5012127;28;20076;-79
2022/09/25 09:38:03;;;;;;;11.30;2.53;;;14.80;99.90;;;;;;5011998;28;20109;-78
2022/09/25 09:40:46;;;;;;;4.07;1.80;;;15.10;99.90;;;;;;5012243;28;20538;-78
2022/09/25 09:43:30;;;;;;;0.85;0.65;;;15.00;99.90;;;;;;5012054;28;20137;-78
2022/09/25 09:46:33;;;;;;;3.13;1.95;;;15.10;99.90;;;;;;5012088;28;20019;-78
2022/09/25 09:49:15;;;;;;;4.75;1.70;;;15.20;99.90;;;;;;5010916;28;20042;-78
2022/09/25 09:52:07;;;;;;;8.38;1.85;;;15.00;99.90;;;;;;5012126;28;20397;-78
2022/09/25 09:54:54;;;;;;;1.33;1.23;;;15.00;99.90;;;;;;5010908;28;20025;-78
2022/09/25 09:57:25;;;;;;;2.28;1.42;;;14.80;99.90;;;;;;5012007;28;20541;-78
2022/09/25 10:00:00;;;;;;;3.60;1.80;;;14.80;99.90;;;;;;5012022;28;20025;-79
2022/09/25 10:02:32;;;;;;;1.92;1.10;;;14.90;99.90;;;;;;5010680;28;20045;-78
2022/09/25 10:05:02;;;;;;;2.95;1.67;;;14.70;99.90;;;;;;5012221;28;20041;-78
2022/09/25 10:07:30;;;;;;;2.33;1.27;;;14.50;99.90;;;;;;5011975;28;20034;-79
2022/09/25 10:09:57;;;;;;;1.92;1.27;;;14.60;99.90;;;;;;5011734;28;20033;-79
2022/09/25 10:12:24;;;;;;;2.30;1.35;;;14.90;99.90;;;;;;5011210;28;20033;-79
2022/09/25 10:14:50;;;;;;;2.10;1.88;;;15.30;99.90;;;;;;5010326;28;20030;-79
2022/09/25 10:17:18;;;;;;;3.08;1.50;;;15.70;99.90;;;;;;5008513;28;20417;-78
2022/09/25 10:19:57;;;;;;;1.27;1.00;;;16.70;99.90;;;;;;5005608;28;20548;-78
2022/09/25 10:22:36;;;;;;;1.30;1.23;;;16.00;99.90;;;;;;4990131;28;20701;-78
2022/09/25 10:25:04;;;;;;;1.63;1.52;;;16.00;99.90;;;;;;4990215;28;20030;-78
2022/09/25 10:27:34;;;;;;;3.50;1.67;;;16.20;99.90;;;;;;4991481;28;20029;-78
2022/09/25 10:30:00;;;;;;;0.98;0.88;;;16.40;99.90;;;;;;4992023;28;20026;-77
2022/09/25 10:32:26;;;;;;;1.30;1.20;;;16.60;99.90;;;;;;4991482;28;20422;-78
2022/09/25 10:34:53;;;;;;;2.72;1.08;;;16.60;99.90;;;;;;4991765;28;20494;-78
2022/09/25 10:37:22;;;;;;;0.95;0.85;;;16.50;99.90;;;;;;4991614;28;20023;-80
2022/09/25 10:40:04;;;;;;;3.65;1.25;;;17.00;99.90;;;;;;4991348;28;20049;-78
2022/09/25 10:42:40;;;;;;;1.67;0.98;;;17.10;99.90;;;;;;5006186;28;20035;-79
2022/09/25 10:45:37;;;;;;;1.30;1.02;;;17.40;99.90;;;;;;4991222;28;20483;-78
2022/09/25 10:51:17;;;;;;;0.80;0.70;;;17.30;99.90;;;;;;4991753;28;20048;-78
2022/09/25 10:53:44;;;;;;;1.40;0.73;;;17.60;99.90;;;;;;4991490;28;20023;-78
2022/09/25 10:56:19;;;;;;;0.80;0.55;;;17.90;99.90;;;;;;4991206;28;20399;-78
2022/09/25 10:58:55;;;;;;;0.70;0.70;;;17.80;99.90;;;;;;4990919;28;20587;-77
2022/09/25 11:01:29;;;;;;;0.47;0.47;;;17.70;99.90;;;;;;4991018;28;20038;-78
2022/09/25 11:03:57;;;;;;;0.55;0.43;;;17.70;99.90;;;;;;4989418;28;20042;-78
2022/09/25 11:06:28;;;;;;;0.55;0.55;;;17.70;99.90;;;;;;4991284;28;20037;-78
2022/09/25 11:09:12;;;;;;;1.65;0.93;;;17.60;99.90;;;;;;4990921;28;20438;-79
2022/09/25 11:11:39;;;;;;;0.35;0.35;;;17.70;99.90;;;;;;4991002;28;20058;-80
2022/09/25 11:14:17;;;;;;;1.17;0.82;;;17.70;99.90;;;;;;4990288;28;20030;-79
2022/09/25 11:16:45;;;;;;;1.40;0.82;;;17.20;99.90;;;;;;4991296;28;20037;-79
2022/09/25 11:19:34;;;;;;;1.88;1.00;;;17.20;99.90;;;;;;5006263;28;20081;-79
2022/09/25 11:22:12;;;;;;;;;;;17.10;99.90;;;;;;5006683;28;20273;-79
2022/09/25 11:24:40;;;;;;;0.75;0.40;;;17.40;99.90;;;;;;5002950;28;19917;-77
2022/09/25 11:27:11;;;;;;;1.33;1.15;;;17.70;99.90;;;;;;4987930;28;20049;-78
2022/09/25 11:29:53;;;;;;;0.90;0.85;;;17.80;99.90;;;;;;4989481;28;20050;-78
2022/09/25 11:32:33;;;;;;;1.08;0.75;;;17.50;99.90;;;;;;4987397;28;20398;-78
2022/09/25 11:35:02;;;;;;;3.47;0.90;;;17.30;99.90;;;;;;4987558;28;20022;-77
2022/09/25 11:38:18;;;;;;;1.10;0.67;;;17.70;99.90;;;;;;4987123;28;20027;-77
2022/09/25 11:41:11;;;;;;;2.50;1.20;;;18.10;99.90;;;;;;4971586;28;20042;-77
2022/09/25 11:43:56;;;;;;;4.30;1.92;;;18.20;99.90;;;;;;4985400;28;20049;-77
2022/09/25 11:46:34;;;;;;;1.95;1.52;;;17.80;99.90;;;;;;4987187;28;20026;-77
2022/09/25 11:49:19;;;;;;;3.63;2.08;;;17.60;99.90;;;;;;4985853;28;20523;-77
2022/09/25 11:51:56;;;;;;;4.40;2.20;;;17.40;99.90;;;;;;5001900;28;20475;-78
2022/09/25 11:54:22;;;;;;;1.10;1.00;;;17.70;99.90;;;;;;4987146;28;20030;-78
2022/09/25 11:57:09;;;;;;;1.45;0.68;;;17.60;99.90;;;;;;4988469;28;20034;-77
2022/09/25 12:00:19;;;;;;;0.40;0.40;;;17.80;99.90;;;;;;4990345;28;20030;-77
2022/09/25 12:03:03;;;;;;;;;;;17.40;99.90;;;;;;4989155;28;20482;-77
2022/09/25 12:06:07;;;;;;;0.60;0.60;;;17.20;99.90;;;;;;4990703;28;20362;-77
2022/09/25 12:09:06;;;;;;;0.52;0.50;;;17.20;99.90;;;;;;4968375;28;20050;-78
2022/09/25 12:11:35;;;;;;;1.88;1.23;;;17.30;99.90;;;;;;5005460;28;20038;-77
2022/09/25 12:14:24;;;;;;;0.95;0.55;;;17.70;99.90;;;;;;4990209;28;20022;-77
2022/09/25 12:17:00;;;;;;;1.08;0.80;;;18.00;99.90;;;;;;4990417;28;20054;-75
2022/09/25 12:19:26;;;;;;;0.60;0.60;;;17.90;99.90;;;;;;4990357;28;20113;-77
2022/09/25 12:22:06;;;;;;;0.60;0.60;;;17.40;99.90;;;;;;4990273;28;20081;-77
2022/09/25 12:25:23;;;;;;;1.23;1.13;;;17.30;99.90;;;;;;4990254;28;20395;-77
2022/09/25 12:28:20;;;;;;;1.23;0.50;;;17.20;99.90;;;;;;4967850;28;20031;-77
2022/09/25 12:30:54;;;;;;;1.20;0.80;;;17.30;99.90;;;;;;4990529;28;20561;-77
2022/09/25 12:33:37;;;;;;;0.73;0.45;;;17.50;99.90;;;;;;4990250;28;20038;-78
2022/09/25 12:36:19;;;;;;;1.05;0.60;;;17.70;99.90;;;;;;4988626;28;20422;-79
2022/09/25 12:38:54;;;;;;;1.45;0.88;;;17.80;99.90;;;;;;4988701;28;20027;-76
2022/09/25 12:41:45;;;;;;;1.58;0.60;;;17.80;99.90;;;;;;4992459;28;20109;-77
2022/09/25 12:44:10;;;;;;;1.55;1.10;;;17.70;99.90;;;;;;5009387;28;20088;-77
2022/09/25 12:46:43;;;;;;;1.17;0.60;;;17.70;99.90;;;;;;5012398;28;20478;-77
2022/09/25 12:49:35;;;;;;;1.38;0.70;;;17.70;99.90;;;;;;5013039;28;20417;-78
2022/09/25 12:52:09;;;;;;;0.85;0.50;;;17.80;99.90;;;;;;5012964;28;20072;-78
2022/09/25 12:55:01;;;;;;;0.88;0.73;;;18.10;99.90;;;;;;5012827;28;20036;-78
2022/09/25 12:57:31;;;;;;;0.68;0.60;;;18.60;99.90;;;;;;5012658;28;20026;-78
2022/09/25 13:00:24;;;;;;;0.65;0.65;;;18.60;99.90;;;;;;5026179;28;20113;-77
2022/09/25 13:03:05;;;;;;;0.65;0.65;;;18.50;99.90;;;;;;5012410;28;20022;-78
2022/09/25 13:05:44;;;;;;;0.60;0.60;;;18.20;99.90;;;;;;5012792;28;20032;-78
2022/09/25 13:08:20;;;;;;;0.50;0.50;;;18.20;99.90;;;;;;5012990;28;20049;-78
2022/09/25 13:11:11;;;;;;;0.55;0.50;;;18.00;99.90;;;;;;5012659;28;20517;-78
2022/09/25 13:13:47;;;;;;;1.00;0.68;;;17.70;99.90;;;;;;5012198;28;20029;-78
2022/09/25 13:16:14;;;;;;;0.60;0.60;;;18.30;99.90;;;;;;5012495;28;20025;-78
2022/09/25 13:18:47;;;;;;;1.67;0.63;;;18.30;99.90;;;;;;5012619;28;20259;-78
2022/09/25 13:21:30;;;;;;;0.68;0.68;;;18.50;99.90;;;;;;5027705;28;20026;-78
2022/09/25 13:23:57;;;;;;;1.48;0.95;;;18.30;99.90;;;;;;5012446;28;20037;-78
2022/09/25 13:26:25;;;;;;;0.60;0.60;;;18.20;99.90;;;;;;5012371;28;20014;-77
2022/09/25 13:29:19;;;;;;;1.63;1.20;;;18.20;99.90;;;;;;5012292;28;20112;-78
2022/09/25 13:31:47;;;;;;;0.63;0.57;;;18.20;99.90;;;;;;5027221;28;20297;-77
2022/09/25 13:34:19;;;;;;;1.00;1.00;;;18.40;99.90;;;;;;5012299;28;20033;-78
2022/09/25 13:36:46;;;;;;;0.60;0.60;;;18.20;99.90;;;;;;5012409;28;20025;-78
2022/09/25 13:42:36;;;;;;;0.65;0.60;;;17.70;99.90;;;;;;5012088;28;20129;-78
2022/09/25 13:45:20;;;;;;;0.60;0.60;;;17.50;99.90;;;;;;5012222;28;20038;-78
2022/09/25 13:47:59;;;;;;;0.65;0.65;;;17.10;99.90;;;;;;5011872;28;20026;-77